createdAt,value
2023-04-09T00:01:47.094Z,102811.31
2023-04-09T00:03:52.185Z,102812.13
2023-04-09T00:05:57.269Z,102814.78
2023-04-09T00:08:02.210Z,102820.00
2023-04-09T00:10:07.795Z,102816.50
2023-04-09T00:12:13.468Z,102816.47
2023-04-09T00:14:18.360Z,102814.75
2023-04-09T00:16:26.248Z,102820.84
2023-04-09T00:18:31.417Z,102818.22
2023-04-09T00:20:36.698Z,102815.63
2023-04-09T00:22:42.361Z,102820.88
2023-04-09T00:24:47.588Z,102811.31
2023-04-09T00:26:53.717Z,102813.91
2023-04-09T00:28:58.754Z,102819.13
2023-04-09T00:31:03.833Z,102809.53
2023-04-09T00:33:12.261Z,102811.28
2023-04-09T00:35:17.754Z,102806.91
2023-04-09T00:37:22.977Z,102806.06
2023-04-09T00:39:28.051Z,102815.66
2023-04-09T00:41:33.188Z,102806.06
2023-04-09T00:43:40.796Z,102802.53
2023-04-09T00:45:47.301Z,102799.00
2023-04-09T00:47:52.490Z,102797.31
2023-04-09T00:50:00.973Z,102802.47
2023-04-09T00:52:06.119Z,102792.88
2023-04-09T00:54:12.297Z,102792.84
2023-04-09T00:56:20.344Z,102796.28
2023-04-09T00:58:28.126Z,102790.13
2023-04-09T01:00:33.136Z,102792.69
2023-04-09T01:02:38.631Z,102790.84
2023-04-09T01:04:46.809Z,102783.88
2023-04-09T01:06:58.510Z,102795.97
2023-04-09T01:09:09.313Z,102792.41
2023-04-09T01:11:26.032Z,102796.72
2023-04-09T01:13:38.331Z,102787.06
2023-04-09T01:15:50.231Z,102789.59
2023-04-09T01:17:59.718Z,102793.97
2023-04-09T01:20:12.625Z,102795.63
2023-04-09T01:22:32.699Z,102795.53
2023-04-09T01:24:47.622Z,102794.69
2023-04-09T01:27:01.982Z,102805.13
2023-04-09T01:29:10.827Z,102803.28
2023-04-09T01:31:21.669Z,102791.13
2023-04-09T01:33:31.618Z,102802.34
2023-04-09T01:35:36.875Z,102802.31
2023-04-09T01:37:43.743Z,102803.19
2023-04-09T01:39:52.624Z,102797.97
2023-04-09T01:41:59.062Z,102804.88
2023-04-09T01:44:06.053Z,102800.50
2023-04-09T01:46:15.408Z,102801.34
2023-04-09T01:48:21.373Z,102805.69
2023-04-09T01:50:26.770Z,102798.66
2023-04-09T01:52:32.005Z,102800.44
2023-04-09T01:54:37.199Z,102797.81
2023-04-09T01:56:46.999Z,102792.56
2023-04-09T01:58:52.876Z,102788.19
2023-04-09T02:01:03.250Z,102791.66
2023-04-09T02:03:14.548Z,102796.84
2023-04-09T02:05:27.411Z,102789.81
2023-04-09T02:07:42.210Z,102801.13
2023-04-09T02:09:52.552Z,102798.53
2023-04-09T02:12:00.121Z,102800.28
2023-04-09T02:14:08.690Z,102792.41
2023-04-09T02:16:17.079Z,102788.94
2023-04-09T02:18:30.421Z,102787.16
2023-04-09T02:20:35.332Z,102782.81
2023-04-09T02:22:42.336Z,102788.16
2023-04-09T02:24:51.588Z,102781.22
2023-04-09T02:26:56.706Z,102781.31
2023-04-09T02:29:30.345Z,102775.22
2023-04-09T02:31:47.891Z,102772.59
2023-04-09T02:34:27.654Z,102776.97
2023-04-09T02:37:03.019Z,102768.28
2023-04-09T02:39:30.860Z,102776.13
2023-04-09T02:44:55.898Z,102772.69
2023-04-09T02:47:19.218Z,102770.06
2023-04-09T02:52:37.369Z,102766.66
2023-04-09T02:55:09.650Z,102761.41
2023-04-09T02:57:49.460Z,102753.63
2023-04-09T03:00:12.513Z,102756.25
2023-04-09T03:02:56.352Z,102751.91
2023-04-09T03:05:33.867Z,102751.94
2023-04-09T03:08:07.725Z,102750.25
2023-04-09T03:10:54.435Z,102749.44
2023-04-09T03:16:18.759Z,102748.78
2023-04-09T03:19:21.222Z,102747.09
2023-04-09T03:22:23.310Z,102741.97
2023-04-09T03:25:09.718Z,102738.56
2023-04-09T03:27:43.149Z,102741.25
2023-04-09T03:30:06.946Z,102736.09
2023-04-09T03:32:52.736Z,102730.91
2023-04-09T03:35:25.238Z,102731.88
2023-04-09T03:37:48.935Z,102725.09
2023-04-09T03:40:13.286Z,102722.59
2023-04-09T03:42:46.146Z,102720.94
2023-04-09T03:45:16.910Z,102721.88
2023-04-09T03:47:56.703Z,102724.56
2023-04-09T03:50:58.637Z,102721.09
2023-04-09T03:54:04.659Z,102723.75
2023-04-09T04:02:39.131Z,102722.03
2023-04-09T04:04:51.363Z,102722.03
2023-04-09T04:07:23.745Z,102722.91
2023-04-09T04:09:58.892Z,102721.22
2023-04-09T04:12:47.461Z,102722.06
2023-04-09T04:15:28.647Z,102716.84
2023-04-09T04:18:18.586Z,102713.34
2023-04-09T04:21:07.260Z,102715.09
2023-04-09T04:26:23.865Z,102710.75
2023-04-09T04:28:52.128Z,102708.13
2023-04-09T04:34:09.681Z,102702.91
2023-04-09T04:36:23.980Z,102711.63
2023-04-09T04:41:48.306Z,102707.28
2023-04-09T04:44:29.215Z,102709.00
2023-04-09T04:50:18.125Z,102707.28
2023-04-09T04:52:48.275Z,102710.78
2023-04-09T04:58:01.421Z,102723.84
2023-04-09T05:00:56.953Z,102729.97
2023-04-09T05:05:51.929Z,102738.69
2023-04-09T05:11:00.853Z,102736.94
2023-04-09T05:13:29.404Z,102735.19
2023-04-09T05:16:15.914Z,102732.59
2023-04-09T05:33:42.597Z,102725.63
2023-04-09T05:36:08.060Z,102730.00
2023-04-09T05:38:50.103Z,102729.09
2023-04-09T05:41:40.495Z,102729.09
2023-04-09T05:46:52.785Z,102732.59
2023-04-09T05:52:52.150Z,102729.09
2023-04-09T05:55:16.968Z,102734.34
2023-04-09T06:00:55.894Z,102728.22
2023-04-09T06:03:57.259Z,102736.13
2023-04-09T06:11:42.881Z,102730.88
2023-04-09T06:14:48.349Z,102730.88
2023-04-09T06:17:16.536Z,102734.34
2023-04-09T06:25:42.482Z,102735.22
2023-04-09T06:27:47.611Z,102729.09
2023-04-09T06:29:52.710Z,102736.97
2023-04-09T06:31:58.066Z,102736.94
2023-04-09T06:34:03.141Z,102743.06
2023-04-09T06:36:10.760Z,102742.16
2023-04-09T06:38:18.810Z,102746.53
2023-04-09T06:40:26.567Z,102743.94
2023-04-09T06:42:31.514Z,102752.66
2023-04-09T06:44:37.110Z,102750.03
2023-04-09T06:46:42.987Z,102749.16
2023-04-09T06:55:03.001Z,102749.16
2023-04-09T06:57:36.940Z,102748.28
2023-04-09T07:02:48.400Z,102748.25
2023-04-09T07:04:53.501Z,102749.13
2023-04-09T07:06:59.492Z,102744.72
2023-04-09T07:09:04.774Z,102744.72
2023-04-09T07:11:12.588Z,102742.97
2023-04-09T07:15:31.966Z,102741.25
2023-04-09T07:17:37.648Z,102742.09
2023-04-09T07:19:43.623Z,102740.34
2023-04-09T07:21:48.703Z,102741.25
2023-04-09T07:23:54.816Z,102743.81
2023-04-09T07:26:01.207Z,102746.41
2023-04-09T07:28:06.697Z,102743.78
2023-04-09T07:30:17.507Z,102744.66
2023-04-09T07:32:22.545Z,102749.03
2023-04-09T07:34:27.678Z,102747.28
2023-04-09T07:36:32.647Z,102746.41
2023-04-09T07:38:37.985Z,102742.91
2023-04-09T07:40:43.433Z,102746.44
2023-04-09T07:42:51.431Z,102743.75
2023-04-09T07:44:56.979Z,102746.41
2023-04-09T07:47:26.246Z,102746.44
2023-04-09T07:50:17.008Z,102749.91
2023-04-09T07:55:44.064Z,102739.38
2023-04-09T07:58:27.984Z,102750.75
2023-04-09T08:00:39.811Z,102742.00
2023-04-09T08:03:17.099Z,102739.38
2023-04-09T08:06:09.931Z,102736.75
2023-04-09T08:08:46.517Z,102745.50
2023-04-09T08:11:43.661Z,102743.78
2023-04-09T08:14:18.000Z,102744.63
2023-04-09T08:16:47.411Z,102746.38
2023-04-09T08:19:47.840Z,102749.91
2023-04-09T08:28:20.170Z,102746.34
2023-04-09T08:38:51.698Z,102756.03
2023-04-09T08:41:39.154Z,102762.16
2023-04-09T08:43:57.790Z,102759.53
2023-04-09T08:46:08.539Z,102759.47
2023-04-09T08:48:17.054Z,102755.97
2023-04-09T08:50:22.863Z,102759.47
2023-04-09T08:52:37.190Z,102758.59
2023-04-09T08:54:46.681Z,102764.72
2023-04-09T08:56:52.557Z,102754.22
2023-04-09T08:58:58.977Z,102756.84
2023-04-09T09:01:05.041Z,102751.59
2023-04-09T09:03:15.409Z,102752.47
2023-04-09T09:05:20.740Z,102750.72
2023-04-09T09:07:26.197Z,102752.44
2023-04-09T09:09:33.822Z,102751.59
2023-04-09T09:11:39.740Z,102755.97
2023-04-09T09:14:13.091Z,102758.56
2023-04-09T09:16:34.272Z,102761.19
2023-04-09T09:18:50.846Z,102754.19
2023-04-09T09:21:27.546Z,102759.38
2023-04-09T09:23:57.166Z,102755.06
2023-04-09T09:26:16.755Z,102752.41
2023-04-09T09:28:23.540Z,102749.81
2023-04-09T09:30:29.968Z,102743.69
2023-04-09T09:32:35.094Z,102742.75
2023-04-09T09:34:40.218Z,102741.00
2023-04-09T09:36:48.741Z,102744.50
2023-04-09T09:39:00.823Z,102737.47
2023-04-09T09:41:23.318Z,102741.84
2023-04-09T09:43:28.542Z,102737.41
2023-04-09T09:45:33.741Z,102729.50
2023-04-09T09:47:39.814Z,102730.34
2023-04-09T09:49:47.486Z,102734.69
2023-04-09T09:51:52.618Z,102730.34
2023-04-09T09:54:00.125Z,102727.72
2023-04-09T09:56:07.806Z,102725.94
2023-04-09T09:58:28.246Z,102722.34
2023-04-09T10:00:36.203Z,102723.19
2023-04-09T10:05:36.748Z,102712.63
2023-04-09T10:07:42.399Z,102709.88
2023-04-09T10:10:02.008Z,102707.16
2023-04-09T10:14:58.738Z,102708.72
2023-04-09T10:17:17.169Z,102711.31
2023-04-09T10:19:24.451Z,102710.38
2023-04-09T10:22:02.344Z,102706.72
2023-04-09T10:24:12.601Z,102703.28
2023-04-09T10:26:18.314Z,102699.66
2023-04-09T10:29:02.903Z,102696.00
2023-04-09T10:31:48.062Z,102690.63
2023-04-09T10:33:54.169Z,102685.09
2023-04-09T10:36:28.609Z,102680.38
2023-04-09T10:38:54.954Z,102673.97
2023-04-09T10:40:59.927Z,102673.69
2023-04-09T10:43:06.296Z,102674.44
2023-04-09T10:48:07.039Z,102659.91
2023-04-09T10:50:22.192Z,102671.81
2023-04-09T10:52:35.418Z,102659.44
2023-04-09T10:58:50.488Z,102660.22
2023-04-09T11:17:01.597Z,102630.19
2023-04-09T11:19:08.099Z,102630.81
2023-04-09T11:22:05.318Z,102620.03
2023-04-09T11:24:11.076Z,102631.72
2023-04-09T11:26:17.329Z,102625.34
2023-04-09T11:28:23.926Z,102626.91
2023-04-09T11:43:04.669Z,102610.50
2023-04-09T11:49:22.341Z,102618.34
2023-04-09T11:51:31.992Z,102614.25
2023-04-09T11:53:59.233Z,102603.06
2023-04-09T11:56:04.622Z,102603.25
2023-04-09T12:00:38.855Z,102604.09
2023-04-09T12:03:20.737Z,102598.22
2023-04-09T12:05:31.534Z,102597.28
2023-04-09T12:07:38.052Z,102601.97
2023-04-09T12:09:51.748Z,102600.94
2023-04-09T12:12:00.364Z,102601.50
2023-04-09T12:14:17.771Z,102592.75
2023-04-09T12:19:32.823Z,102586.44
2023-04-09T12:21:56.213Z,102587.00
2023-04-09T12:24:01.245Z,102590.69
2023-04-09T12:26:11.671Z,102585.28
2023-04-09T12:28:21.975Z,102585.28
2023-04-09T12:51:02.016Z,102591.03
2023-04-09T12:54:12.949Z,102581.88
2023-04-09T13:03:10.356Z,102574.25
2023-04-09T13:21:17.668Z,102563.34
2023-04-09T13:23:22.991Z,102565.06
2023-04-09T13:35:13.643Z,102536.72
2023-04-09T13:37:42.899Z,102535.69
2023-04-09T13:39:52.872Z,102529.66
2023-04-09T13:42:14.333Z,102529.59
2023-04-09T13:44:23.730Z,102528.63
2023-04-09T13:46:29.619Z,102527.63
2023-04-09T13:48:35.258Z,102530.53
2023-04-09T13:50:41.034Z,102525.25
2023-04-09T13:52:51.620Z,102514.88
2023-04-09T13:54:56.927Z,102518.25
2023-04-09T13:57:05.457Z,102514.66
2023-04-09T13:59:12.216Z,102519.00
2023-04-09T14:01:22.646Z,102519.00
2023-04-09T14:03:30.738Z,102513.25
2023-04-09T14:05:36.968Z,102507.84
2023-04-09T14:07:47.300Z,102506.44
2023-04-09T14:09:57.174Z,102501.16
2023-04-09T14:12:04.871Z,102498.88
2023-04-09T14:14:10.973Z,102487.84
2023-04-09T14:16:18.678Z,102478.88
2023-04-09T14:19:46.936Z,102456.69
2023-04-09T14:21:53.496Z,102463.06
2023-04-09T14:23:58.775Z,102457.09
2023-04-09T14:26:07.393Z,102472.72
2023-04-09T14:28:17.849Z,102470.03
2023-04-09T14:30:22.876Z,102467.28
2023-04-09T14:32:27.952Z,102451.97
2023-04-09T14:34:34.822Z,102443.44
2023-04-09T14:36:39.674Z,102438.25
2023-04-09T14:38:45.908Z,102441.59
2023-04-09T14:40:52.195Z,102444.16
2023-04-09T14:42:59.791Z,102445.31
2023-04-09T14:45:05.116Z,102448.03
2023-04-09T14:47:10.196Z,102443.84
2023-04-09T14:49:18.342Z,102447.00
2023-04-09T14:51:23.359Z,102445.31
2023-04-09T14:53:30.443Z,102447.59
2023-04-09T14:55:35.346Z,102441.00
2023-04-09T14:57:42.266Z,102438.66
2023-04-09T14:59:51.341Z,102442.41
2023-04-09T15:01:56.968Z,102443.13
2023-04-09T15:04:04.669Z,102440.06
2023-04-09T15:06:10.152Z,102438.31
2023-04-09T15:08:26.752Z,102436.47
2023-04-09T15:10:31.774Z,102435.72
2023-04-09T15:12:54.765Z,102437.59
2023-04-09T15:15:16.304Z,102433.31
2023-04-09T15:17:31.607Z,102426.16
2023-04-09T15:19:37.095Z,102424.88
2023-04-09T15:21:56.243Z,102421.84
2023-04-09T15:24:02.926Z,102431.34
2023-04-09T15:26:08.129Z,102429.81
2023-04-09T15:28:18.898Z,102430.25
2023-04-09T15:30:26.929Z,102424.53
2023-04-09T15:32:35.764Z,102424.28
2023-04-09T15:35:02.351Z,102420.88
2023-04-09T15:37:13.131Z,102419.72
2023-04-09T15:39:20.939Z,102427.59
2023-04-09T15:41:27.202Z,102425.84
2023-04-09T15:43:32.417Z,102414.47
2023-04-09T15:45:40.228Z,102414.56
2023-04-09T15:47:50.583Z,102415.63
2023-04-09T15:50:06.483Z,102413.84
2023-04-09T15:52:42.301Z,102404.63
2023-04-09T15:55:02.922Z,102409.56
2023-04-09T15:57:12.161Z,102401.00
2023-04-09T15:59:22.760Z,102402.91
2023-04-09T16:01:34.096Z,102395.88
2023-04-09T16:03:42.642Z,102393.06
2023-04-09T16:06:25.725Z,102400.53
2023-04-09T16:08:58.996Z,102392.38
2023-04-09T16:11:10.874Z,102397.84
2023-04-09T16:13:56.401Z,102393.47
2023-04-09T16:16:21.955Z,102395.13
2023-04-09T16:18:57.787Z,102383.38
2023-04-09T16:21:32.766Z,102392.31
2023-04-09T16:23:47.693Z,102388.03
2023-04-09T16:26:02.672Z,102379.56
2023-04-09T16:28:40.965Z,102383.59
2023-04-09T16:30:48.285Z,102380.81
2023-04-09T16:32:54.017Z,102385.28
2023-04-09T16:35:03.726Z,102373.06
2023-04-09T16:37:09.273Z,102379.28
2023-04-09T16:39:37.807Z,102378.91
2023-04-09T16:41:46.503Z,102377.31
2023-04-09T16:43:55.552Z,102378.91
2023-04-09T16:46:21.124Z,102384.72
2023-04-09T16:48:44.921Z,102381.81
2023-04-09T16:51:28.819Z,102380.84
2023-04-09T16:53:51.363Z,102375.63
2023-04-09T16:56:13.336Z,102374.50
2023-04-09T16:59:09.446Z,102377.41
2023-04-09T17:01:30.598Z,102377.75
2023-04-09T17:03:35.735Z,102382.25
2023-04-09T17:05:42.287Z,102372.81
2023-04-09T17:07:53.304Z,102365.66
2023-04-09T17:10:00.706Z,102364.78
2023-04-09T17:12:05.714Z,102367.81
2023-04-09T17:14:44.911Z,102369.56
2023-04-09T17:17:13.180Z,102381.34
2023-04-09T17:19:19.252Z,102380.34
2023-04-09T17:21:48.767Z,102379.75
2023-04-09T17:24:14.386Z,102380.88
2023-04-09T17:26:27.846Z,102366.06
2023-04-09T17:28:33.748Z,102367.88
2023-04-09T17:30:57.976Z,102374.75
2023-04-09T17:33:03.537Z,102379.25
2023-04-09T17:35:20.471Z,102379.38
2023-04-09T17:37:36.784Z,102381.22
2023-04-09T17:39:56.576Z,102369.66
2023-04-09T17:42:08.139Z,102377.81
2023-04-09T17:44:28.760Z,102367.31
2023-04-09T17:46:40.410Z,102377.28
2023-04-09T17:49:06.316Z,102373.03
2023-04-09T17:51:40.050Z,102368.22
2023-04-09T17:53:49.398Z,102378.22
2023-04-09T17:59:16.680Z,102375.03
2023-04-09T18:02:02.701Z,102384.22
2023-04-09T18:04:09.457Z,102382.72
2023-04-09T18:06:55.503Z,102382.25
2023-04-09T18:09:03.384Z,102386.34
2023-04-09T18:11:53.785Z,102390.19
2023-04-09T18:14:11.343Z,102388.66
2023-04-09T18:16:29.316Z,102386.25
2023-04-09T18:18:47.333Z,102389.00
2023-04-09T18:21:05.645Z,102384.81
2023-04-09T18:23:20.908Z,102384.94
2023-04-09T18:25:29.334Z,102382.25
2023-04-09T18:27:41.447Z,102383.22
2023-04-09T18:29:49.439Z,102379.16
2023-04-09T18:31:59.051Z,102378.50
2023-04-09T18:34:04.275Z,102379.50
2023-04-09T18:36:13.459Z,102379.59
2023-04-09T18:38:19.881Z,102376.19
2023-04-09T18:40:32.498Z,102385.31
2023-04-09T18:42:54.949Z,102387.00
2023-04-09T18:45:00.181Z,102383.53
2023-04-09T18:47:07.706Z,102384.47
2023-04-09T18:49:13.199Z,102380.44
2023-04-09T18:51:20.697Z,102386.41
2023-04-09T18:53:27.964Z,102380.63
2023-04-09T18:55:33.031Z,102379.63
2023-04-09T18:57:45.604Z,102377.22
2023-04-09T18:59:52.486Z,102384.28
2023-04-09T19:01:58.907Z,102383.66
2023-04-09T19:04:04.085Z,102385.63
2023-04-09T19:06:25.895Z,102390.00
2023-04-09T19:08:36.557Z,102388.28
2023-04-09T19:10:42.733Z,102385.97
2023-04-09T19:12:54.043Z,102387.84
2023-04-09T19:15:01.131Z,102387.81
2023-04-09T19:17:06.231Z,102383.56
2023-04-09T19:19:11.263Z,102394.00
2023-04-09T19:21:18.061Z,102388.88
2023-04-09T19:23:24.011Z,102388.31
2023-04-09T19:25:29.517Z,102385.63
2023-04-09T19:27:34.688Z,102387.53
2023-04-09T19:29:42.378Z,102390.44
2023-04-09T19:31:47.382Z,102389.53
2023-04-09T19:33:53.527Z,102379.91
2023-04-09T19:35:58.772Z,102387.69
2023-04-09T19:38:05.073Z,102388.59
2023-04-09T19:40:11.796Z,102385.25
2023-04-09T19:42:16.692Z,102384.47
2023-04-09T19:44:27.388Z,102380.25
2023-04-09T19:46:41.163Z,102383.72
2023-04-09T19:48:48.410Z,102390.88
2023-04-09T19:50:55.646Z,102385.69
2023-04-09T19:53:00.621Z,102386.41
2023-04-09T19:55:05.693Z,102392.78
2023-04-09T19:57:11.302Z,102374.56
2023-04-09T19:59:18.193Z,102383.31
2023-04-09T20:01:26.146Z,102372.72
2023-04-09T20:03:35.418Z,102367.66
2023-04-09T20:05:43.866Z,102366.75
2023-04-09T20:07:59.821Z,102358.91
2023-04-09T20:10:08.536Z,102364.19
2023-04-09T20:12:13.817Z,102355.47
2023-04-09T20:14:23.799Z,102348.53
2023-04-09T20:16:32.860Z,102354.56
2023-04-09T20:18:41.178Z,102355.56
2023-04-09T20:20:49.384Z,102354.63
2023-04-09T20:22:56.901Z,102352.03
2023-04-09T20:25:02.724Z,102355.53
2023-04-09T20:27:08.126Z,102356.53
2023-04-09T20:29:13.366Z,102363.56
2023-04-09T20:31:28.127Z,102357.50
2023-04-09T20:33:33.352Z,102360.91
2023-04-09T20:35:42.991Z,102358.41
2023-04-09T20:37:49.423Z,102350.56
2023-04-09T20:40:02.452Z,102354.06
2023-04-09T20:42:08.002Z,102355.97
2023-04-09T20:44:12.968Z,102359.56
2023-04-09T20:46:18.072Z,102352.59
2023-04-09T20:48:23.802Z,102353.59
2023-04-09T20:50:29.708Z,102353.66
2023-04-09T20:52:37.745Z,102351.91
2023-04-09T20:54:43.319Z,102356.34
2023-04-09T20:56:48.349Z,102355.47
2023-04-09T20:58:54.215Z,102349.47
2023-04-09T21:01:06.870Z,102348.50
2023-04-09T21:03:12.113Z,102347.66
2023-04-09T21:05:23.434Z,102353.00
2023-04-09T21:07:29.472Z,102346.84
2023-04-09T21:09:39.726Z,102343.41
2023-04-09T21:11:46.339Z,102346.13
2023-04-09T21:13:55.372Z,102346.94
2023-04-09T21:16:00.887Z,102346.94
2023-04-09T21:18:06.074Z,102344.34
2023-04-09T21:20:15.747Z,102345.28
2023-04-09T21:22:21.098Z,102337.34
2023-04-09T21:24:27.147Z,102345.28
2023-04-09T21:26:49.282Z,102344.50
2023-04-09T21:28:56.967Z,102345.41
2023-04-09T21:31:04.959Z,102345.44
2023-04-09T21:33:11.471Z,102339.34
2023-04-09T21:35:21.391Z,102338.41
2023-04-09T21:37:29.197Z,102331.44
2023-04-09T21:39:39.921Z,102331.44
2023-04-09T21:41:47.814Z,102328.03
2023-04-09T21:43:56.420Z,102333.38
2023-04-09T21:46:02.695Z,102331.69
2023-04-09T21:48:10.589Z,102333.50
2023-04-09T21:50:18.122Z,102339.72
2023-04-09T21:52:26.528Z,102335.44
2023-04-09T21:54:31.864Z,102331.97
2023-04-09T21:56:39.528Z,102340.78
2023-04-09T21:58:47.927Z,102340.84
2023-04-09T22:00:53.835Z,102341.72
2023-04-09T22:03:01.781Z,102339.16
2023-04-09T22:05:07.863Z,102337.47
2023-04-09T22:07:14.355Z,102340.13
2023-04-09T22:09:19.738Z,102330.56
2023-04-09T22:11:28.628Z,102334.06
2023-04-09T22:13:33.828Z,102343.72
2023-04-09T22:15:42.156Z,102333.31
2023-04-09T22:17:47.846Z,102339.44
2023-04-09T22:19:53.625Z,102329.00
2023-04-09T22:21:58.963Z,102331.59
2023-04-09T22:24:06.566Z,102326.38
2023-04-09T22:26:14.514Z,102324.66
2023-04-09T22:28:29.360Z,102324.69
2023-04-09T22:30:34.306Z,102323.84
2023-04-09T22:32:41.825Z,102318.59
2023-04-09T22:34:46.964Z,102321.16
2023-04-09T22:36:52.711Z,102318.53
2023-04-09T22:38:57.746Z,102321.19
2023-04-09T22:41:04.136Z,102318.56
2023-04-09T22:43:09.312Z,102316.81
2023-04-09T22:45:17.246Z,102315.97
2023-04-09T22:47:22.446Z,102317.75
2023-04-09T22:49:30.165Z,102313.44
2023-04-09T22:51:36.649Z,102312.53
2023-04-09T22:53:41.689Z,102307.25
2023-04-09T22:55:51.220Z,102312.47
2023-04-09T22:57:58.228Z,102302.78
2023-04-09T23:00:05.403Z,102306.25
2023-04-09T23:02:10.694Z,102303.66
2023-04-09T23:04:24.518Z,102307.09
2023-04-09T23:06:32.242Z,102306.97
2023-04-09T23:08:38.823Z,102303.41
2023-04-09T23:10:46.035Z,102306.06
2023-04-09T23:12:50.999Z,102306.00
2023-04-09T23:14:57.420Z,102298.09
2023-04-09T23:17:16.842Z,102291.13
2023-04-09T23:19:32.518Z,102288.34
2023-04-09T23:21:43.210Z,102289.25
2023-04-09T23:23:48.230Z,102279.63
2023-04-09T23:25:53.984Z,102282.19
2023-04-09T23:28:01.356Z,102274.31
2023-04-09T23:30:07.090Z,102269.94
2023-04-09T23:32:18.932Z,102267.31
2023-04-09T23:34:24.138Z,102261.22
2023-04-09T23:36:29.408Z,102254.19
2023-04-09T23:38:37.294Z,102252.41
2023-04-09T23:40:42.281Z,102253.31
2023-04-09T23:42:48.370Z,102249.69
2023-04-09T23:44:53.891Z,102252.34
2023-04-09T23:46:58.841Z,102247.91
2023-04-09T23:49:05.952Z,102247.91
2023-04-09T23:51:11.121Z,102243.53
2023-04-09T23:53:17.605Z,102237.44
2023-04-09T23:55:25.403Z,102244.44
2023-04-09T23:57:30.846Z,102232.19
2023-04-09T23:59:36.587Z,102221.75
